sensor_id;sensor_type;location;lat;lon;timestamp;P1;durP1;ratioP1;P2;durP2;ratioP2
12762;SDS011;6445;52.490;13.378;2024-02-14T00:01:26;11.70;;;7.38;;
12762;SDS011;6445;52.490;13.378;2024-02-14T00:03:51;12.23;;;8.02;;
12762;SDS011;6445;52.490;13.378;2024-02-14T00:06:17;12.05;;;7.47;;
12762;SDS011;6445;52.490;13.378;2024-02-14T00:08:43;11.13;;;7.50;;
12762;SDS011;6445;52.490;13.378;2024-02-14T00:11:08;9.23;;;7.20;;
12762;SDS011;6445;52.490;13.378;2024-02-14T00:13:34;11.70;;;7.35;;
12762;SDS011;6445;52.490;13.378;2024-02-14T00:15:59;10.60;;;7.30;;
12762;SDS011;6445;52.490;13.378;2024-02-14T00:18:26;9.43;;;7.43;;
12762;SDS011;6445;52.490;13.378;2024-02-14T00:20:51;10.77;;;7.25;;
12762;SDS011;6445;52.490;13.378;2024-02-14T00:23:16;11.55;;;6.97;;
12762;SDS011;6445;52.490;13.378;2024-02-14T00:25:41;10.10;;;7.38;;
12762;SDS011;6445;52.490;13.378;2024-02-14T00:28:06;13.20;;;7.75;;
12762;SDS011;6445;52.490;13.378;2024-02-14T00:30:32;11.93;;;7.82;;
12762;SDS011;6445;52.490;13.378;2024-02-14T00:32:57;11.68;;;7.65;;
12762;SDS011;6445;52.490;13.378;2024-02-14T00:35:22;10.98;;;7.50;;
12762;SDS011;6445;52.490;13.378;2024-02-14T00:37:48;13.43;;;8.02;;
12762;SDS011;6445;52.490;13.378;2024-02-14T00:40:13;12.05;;;7.55;;
12762;SDS011;6445;52.490;13.378;2024-02-14T00:42:39;10.18;;;7.88;;
12762;SDS011;6445;52.490;13.378;2024-02-14T00:45:06;10.65;;;6.78;;
12762;SDS011;6445;52.490;13.378;2024-02-14T00:47:33;9.52;;;7.30;;
12762;SDS011;6445;52.490;13.378;2024-02-14T00:49:59;11.13;;;7.70;;
12762;SDS011;6445;52.490;13.378;2024-02-14T00:52:24;11.82;;;7.88;;
12762;SDS011;6445;52.490;13.378;2024-02-14T00:54:49;12.73;;;7.65;;
12762;SDS011;6445;52.490;13.378;2024-02-14T00:57:15;13.02;;;7.72;;
12762;SDS011;6445;52.490;13.378;2024-02-14T00:59:40;11.30;;;7.45;;
12762;SDS011;6445;52.490;13.378;2024-02-14T01:02:06;14.80;;;7.75;;
12762;SDS011;6445;52.490;13.378;2024-02-14T01:04:31;9.82;;;7.82;;
12762;SDS011;6445;52.490;13.378;2024-02-14T01:06:56;10.73;;;7.53;;
12762;SDS011;6445;52.490;13.378;2024-02-14T01:09:21;13.63;;;8.15;;
12762;SDS011;6445;52.490;13.378;2024-02-14T01:11:47;12.18;;;7.85;;
12762;SDS011;6445;52.490;13.378;2024-02-14T01:14:13;9.65;;;7.40;;
12762;SDS011;6445;52.490;13.378;2024-02-14T01:16:42;11.32;;;7.75;;
12762;SDS011;6445;52.490;13.378;2024-02-14T01:19:08;9.60;;;7.22;;
12762;SDS011;6445;52.490;13.378;2024-02-14T01:21:34;9.68;;;7.38;;
12762;SDS011;6445;52.490;13.378;2024-02-14T01:23:59;11.70;;;7.70;;
12762;SDS011;6445;52.490;13.378;2024-02-14T01:26:24;10.65;;;8.02;;
12762;SDS011;6445;52.490;13.378;2024-02-14T01:28:49;11.77;;;7.47;;
12762;SDS011;6445;52.490;13.378;2024-02-14T01:31:15;11.77;;;7.88;;
12762;SDS011;6445;52.490;13.378;2024-02-14T01:33:40;11.00;;;8.00;;
12762;SDS011;6445;52.490;13.378;2024-02-14T01:36:05;11.27;;;7.63;;
12762;SDS011;6445;52.490;13.378;2024-02-14T01:38:31;12.07;;;8.07;;
12762;SDS011;6445;52.490;13.378;2024-02-14T01:41:00;12.38;;;7.80;;
12762;SDS011;6445;52.490;13.378;2024-02-14T01:43:25;10.45;;;7.90;;
12762;SDS011;6445;52.490;13.378;2024-02-14T01:45:50;11.10;;;7.50;;
12762;SDS011;6445;52.490;13.378;2024-02-14T01:48:16;10.63;;;7.05;;
12762;SDS011;6445;52.490;13.378;2024-02-14T01:50:43;9.75;;;7.03;;
12762;SDS011;6445;52.490;13.378;2024-02-14T01:53:09;12.60;;;7.60;;
12762;SDS011;6445;52.490;13.378;2024-02-14T01:55:34;9.32;;;6.95;;
12762;SDS011;6445;52.490;13.378;2024-02-14T01:57:59;11.32;;;7.70;;
12762;SDS011;6445;52.490;13.378;2024-02-14T02:00:25;10.65;;;7.43;;
12762;SDS011;6445;52.490;13.378;2024-02-14T02:02:52;8.93;;;6.65;;
12762;SDS011;6445;52.490;13.378;2024-02-14T02:05:17;12.27;;;7.28;;
12762;SDS011;6445;52.490;13.378;2024-02-14T02:07:43;12.13;;;7.13;;
12762;SDS011;6445;52.490;13.378;2024-02-14T02:10:10;9.68;;;6.53;;
12762;SDS011;6445;52.490;13.378;2024-02-14T02:12:36;10.50;;;7.60;;
12762;SDS011;6445;52.490;13.378;2024-02-14T02:15:03;9.98;;;7.35;;
12762;SDS011;6445;52.490;13.378;2024-02-14T02:17:32;10.27;;;6.97;;
12762;SDS011;6445;52.490;13.378;2024-02-14T02:19:59;8.68;;;6.78;;
12762;SDS011;6445;52.490;13.378;2024-02-14T02:22:25;12.63;;;7.03;;
12762;SDS011;6445;52.490;13.378;2024-02-14T02:24:50;9.55;;;6.28;;
12762;SDS011;6445;52.490;13.378;2024-02-14T02:27:15;9.43;;;7.00;;
12762;SDS011;6445;52.490;13.378;2024-02-14T02:29:41;10.27;;;6.75;;
12762;SDS011;6445;52.490;13.378;2024-02-14T02:32:07;10.18;;;6.78;;
12762;SDS011;6445;52.490;13.378;2024-02-14T02:34:35;8.90;;;6.10;;
12762;SDS011;6445;52.490;13.378;2024-02-14T02:37:03;11.80;;;6.68;;
12762;SDS011;6445;52.490;13.378;2024-02-14T02:39:31;9.82;;;7.00;;
12762;SDS011;6445;52.490;13.378;2024-02-14T02:41:56;11.90;;;6.30;;
12762;SDS011;6445;52.490;13.378;2024-02-14T02:44:22;10.23;;;6.60;;
12762;SDS011;6445;52.490;13.378;2024-02-14T02:46:48;8.85;;;6.45;;
12762;SDS011;6445;52.490;13.378;2024-02-14T02:49:13;10.43;;;6.57;;
12762;SDS011;6445;52.490;13.378;2024-02-14T02:51:38;10.02;;;6.55;;
12762;SDS011;6445;52.490;13.378;2024-02-14T02:54:04;8.68;;;6.47;;
12762;SDS011;6445;52.490;13.378;2024-02-14T02:56:29;9.43;;;6.65;;
12762;SDS011;6445;52.490;13.378;2024-02-14T02:58:57;9.10;;;6.38;;
12762;SDS011;6445;52.490;13.378;2024-02-14T03:01:22;8.82;;;6.90;;
12762;SDS011;6445;52.490;13.378;2024-02-14T03:03:49;10.73;;;6.82;;
12762;SDS011;6445;52.490;13.378;2024-02-14T03:06:15;8.57;;;6.90;;
12762;SDS011;6445;52.490;13.378;2024-02-14T03:08:40;10.63;;;7.07;;
12762;SDS011;6445;52.490;13.378;2024-02-14T03:11:06;12.35;;;6.68;;
12762;SDS011;6445;52.490;13.378;2024-02-14T03:13:32;9.93;;;6.63;;
12762;SDS011;6445;52.490;13.378;2024-02-14T03:15:57;10.02;;;7.18;;
12762;SDS011;6445;52.490;13.378;2024-02-14T03:18:23;12.65;;;7.47;;
12762;SDS011;6445;52.490;13.378;2024-02-14T03:20:51;8.23;;;6.55;;
12762;SDS011;6445;52.490;13.378;2024-02-14T03:23:18;11.25;;;7.40;;
12762;SDS011;6445;52.490;13.378;2024-02-14T03:25:44;11.23;;;6.75;;
12762;SDS011;6445;52.490;13.378;2024-02-14T03:28:09;12.60;;;7.55;;
12762;SDS011;6445;52.490;13.378;2024-02-14T03:30:34;12.05;;;7.22;;
12762;SDS011;6445;52.490;13.378;2024-02-14T03:33:00;10.40;;;6.97;;
12762;SDS011;6445;52.490;13.378;2024-02-14T03:35:26;10.38;;;7.20;;
12762;SDS011;6445;52.490;13.378;2024-02-14T03:37:52;9.65;;;6.90;;
12762;SDS011;6445;52.490;13.378;2024-02-14T03:40:18;13.50;;;7.38;;
12762;SDS011;6445;52.490;13.378;2024-02-14T03:42:45;15.52;;;6.90;;
12762;SDS011;6445;52.490;13.378;2024-02-14T03:45:11;10.05;;;7.47;;
12762;SDS011;6445;52.490;13.378;2024-02-14T03:47:36;11.85;;;7.78;;
12762;SDS011;6445;52.490;13.378;2024-02-14T03:50:04;9.80;;;6.65;;
12762;SDS011;6445;52.490;13.378;2024-02-14T03:52:30;14.95;;;7.53;;
12762;SDS011;6445;52.490;13.378;2024-02-14T03:54:59;9.80;;;6.93;;
12762;SDS011;6445;52.490;13.378;2024-02-14T03:57:25;9.13;;;7.43;;
12762;SDS011;6445;52.490;13.378;2024-02-14T03:59:53;11.00;;;7.40;;
12762;SDS011;6445;52.490;13.378;2024-02-14T04:02:19;9.35;;;7.55;;
12762;SDS011;6445;52.490;13.378;2024-02-14T04:04:44;9.38;;;6.97;;
12762;SDS011;6445;52.490;13.378;2024-02-14T04:07:11;12.52;;;8.10;;
12762;SDS011;6445;52.490;13.378;2024-02-14T04:09:36;11.75;;;7.75;;
12762;SDS011;6445;52.490;13.378;2024-02-14T04:12:02;12.23;;;8.27;;
12762;SDS011;6445;52.490;13.378;2024-02-14T04:14:27;12.60;;;7.63;;
12762;SDS011;6445;52.490;13.378;2024-02-14T04:16:53;9.85;;;7.53;;
12762;SDS011;6445;52.490;13.378;2024-02-14T04:19:19;12.25;;;7.38;;
12762;SDS011;6445;52.490;13.378;2024-02-14T04:21:45;11.43;;;7.60;;
12762;SDS011;6445;52.490;13.378;2024-02-14T04:24:10;11.73;;;7.57;;
12762;SDS011;6445;52.490;13.378;2024-02-14T04:26:36;9.73;;;7.22;;
12762;SDS011;6445;52.490;13.378;2024-02-14T04:29:01;11.73;;;7.57;;
12762;SDS011;6445;52.490;13.378;2024-02-14T04:31:27;9.65;;;7.65;;
12762;SDS011;6445;52.490;13.378;2024-02-14T04:33:54;9.25;;;6.70;;
12762;SDS011;6445;52.490;13.378;2024-02-14T04:36:20;11.20;;;8.00;;
12762;SDS011;6445;52.490;13.378;2024-02-14T04:38:46;12.15;;;7.03;;
12762;SDS011;6445;52.490;13.378;2024-02-14T04:41:12;14.30;;;8.43;;
12762;SDS011;6445;52.490;13.378;2024-02-14T04:43:39;11.07;;;7.10;;
12762;SDS011;6445;52.490;13.378;2024-02-14T04:46:04;11.55;;;7.45;;
12762;SDS011;6445;52.490;13.378;2024-02-14T04:48:32;13.15;;;8.27;;
12762;SDS011;6445;52.490;13.378;2024-02-14T04:51:01;12.00;;;8.23;;
12762;SDS011;6445;52.490;13.378;2024-02-14T04:53:27;12.23;;;8.27;;
12762;SDS011;6445;52.490;13.378;2024-02-14T04:55:52;12.90;;;7.78;;
12762;SDS011;6445;52.490;13.378;2024-02-14T04:58:18;9.90;;;7.28;;
12762;SDS011;6445;52.490;13.378;2024-02-14T05:00:44;9.57;;;8.05;;
12762;SDS011;6445;52.490;13.378;2024-02-14T05:03:09;12.27;;;7.60;;
12762;SDS011;6445;52.490;13.378;2024-02-14T05:05:35;15.18;;;8.93;;
12762;SDS011;6445;52.490;13.378;2024-02-14T05:08:00;11.98;;;8.50;;
12762;SDS011;6445;52.490;13.378;2024-02-14T05:10:25;10.32;;;7.82;;
12762;SDS011;6445;52.490;13.378;2024-02-14T05:12:50;13.93;;;8.75;;
12762;SDS011;6445;52.490;13.378;2024-02-14T05:15:16;12.25;;;8.25;;
12762;SDS011;6445;52.490;13.378;2024-02-14T05:17:44;10.25;;;8.15;;
12762;SDS011;6445;52.490;13.378;2024-02-14T05:20:09;12.82;;;8.32;;
12762;SDS011;6445;52.490;13.378;2024-02-14T05:22:35;10.60;;;8.25;;
12762;SDS011;6445;52.490;13.378;2024-02-14T05:25:02;12.05;;;8.13;;
12762;SDS011;6445;52.490;13.378;2024-02-14T05:27:27;10.32;;;7.90;;
12762;SDS011;6445;52.490;13.378;2024-02-14T05:29:52;12.02;;;7.75;;
12762;SDS011;6445;52.490;13.378;2024-02-14T05:32:18;13.25;;;8.50;;
12762;SDS011;6445;52.490;13.378;2024-02-14T05:34:43;12.27;;;7.97;;
12762;SDS011;6445;52.490;13.378;2024-02-14T05:37:08;13.20;;;9.10;;
12762;SDS011;6445;52.490;13.378;2024-02-14T05:39:34;12.68;;;8.80;;
12762;SDS011;6445;52.490;13.378;2024-02-14T05:41:59;10.93;;;8.25;;
12762;SDS011;6445;52.490;13.378;2024-02-14T05:44:24;11.93;;;8.75;;
12762;SDS011;6445;52.490;13.378;2024-02-14T05:46:52;12.90;;;8.85;;
12762;SDS011;6445;52.490;13.378;2024-02-14T05:49:17;10.27;;;8.38;;
12762;SDS011;6445;52.490;13.378;2024-02-14T05:51:42;11.10;;;8.30;;
12762;SDS011;6445;52.490;13.378;2024-02-14T05:54:08;15.30;;;9.13;;
12762;SDS011;6445;52.490;13.378;2024-02-14T05:56:33;14.60;;;8.25;;
12762;SDS011;6445;52.490;13.378;2024-02-14T05:58:58;10.65;;;8.57;;
12762;SDS011;6445;52.490;13.378;2024-02-14T06:01:24;10.00;;;8.32;;
12762;SDS011;6445;52.490;13.378;2024-02-14T06:03:49;14.23;;;8.50;;
12762;SDS011;6445;52.490;13.378;2024-02-14T06:06:14;14.15;;;9.48;;
12762;SDS011;6445;52.490;13.378;2024-02-14T06:08:39;11.13;;;8.18;;
12762;SDS011;6445;52.490;13.378;2024-02-14T06:11:05;15.90;;;8.77;;
12762;SDS011;6445;52.490;13.378;2024-02-14T06:13:30;15.60;;;8.80;;
12762;SDS011;6445;52.490;13.378;2024-02-14T06:15:55;12.65;;;8.18;;
12762;SDS011;6445;52.490;13.378;2024-02-14T06:18:20;15.02;;;8.50;;
12762;SDS011;6445;52.490;13.378;2024-02-14T06:20:46;12.40;;;8.38;;
12762;SDS011;6445;52.490;13.378;2024-02-14T06:23:11;13.27;;;8.52;;
12762;SDS011;6445;52.490;13.378;2024-02-14T06:25:37;10.25;;;7.53;;
12762;SDS011;6445;52.490;13.378;2024-02-14T06:28:02;11.57;;;8.38;;
12762;SDS011;6445;52.490;13.378;2024-02-14T06:30:27;10.68;;;8.45;;
12762;SDS011;6445;52.490;13.378;2024-02-14T06:32:53;12.77;;;8.88;;
12762;SDS011;6445;52.490;13.378;2024-02-14T06:35:18;13.25;;;7.93;;
12762;SDS011;6445;52.490;13.378;2024-02-14T06:37:43;11.60;;;8.15;;
12762;SDS011;6445;52.490;13.378;2024-02-14T06:40:09;16.58;;;8.10;;
12762;SDS011;6445;52.490;13.378;2024-02-14T06:42:35;13.48;;;7.70;;
12762;SDS011;6445;52.490;13.378;2024-02-14T06:45:00;12.38;;;7.75;;
12762;SDS011;6445;52.490;13.378;2024-02-14T06:47:26;12.85;;;7.68;;
12762;SDS011;6445;52.490;13.378;2024-02-14T06:49:54;11.88;;;7.57;;
12762;SDS011;6445;52.490;13.378;2024-02-14T06:52:23;10.23;;;7.40;;
12762;SDS011;6445;52.490;13.378;2024-02-14T06:54:49;11.32;;;7.63;;
12762;SDS011;6445;52.490;13.378;2024-02-14T06:57:14;11.88;;;7.18;;
12762;SDS011;6445;52.490;13.378;2024-02-14T06:59:39;11.55;;;7.93;;
12762;SDS011;6445;52.490;13.378;2024-02-14T07:02:05;13.18;;;7.63;;
12762;SDS011;6445;52.490;13.378;2024-02-14T07:04:31;10.55;;;7.63;;
12762;SDS011;6445;52.490;13.378;2024-02-14T07:06:56;10.38;;;7.00;;
12762;SDS011;6445;52.490;13.378;2024-02-14T07:09:21;10.88;;;7.10;;
12762;SDS011;6445;52.490;13.378;2024-02-14T07:11:47;12.02;;;7.28;;
12762;SDS011;6445;52.490;13.378;2024-02-14T07:14:12;11.23;;;7.25;;
12762;SDS011;6445;52.490;13.378;2024-02-14T07:16:37;11.10;;;6.93;;
12762;SDS011;6445;52.490;13.378;2024-02-14T07:19:03;9.65;;;7.43;;
12762;SDS011;6445;52.490;13.378;2024-02-14T07:21:28;11.00;;;6.82;;
12762;SDS011;6445;52.490;13.378;2024-02-14T07:23:53;13.02;;;6.72;;
12762;SDS011;6445;52.490;13.378;2024-02-14T07:26:19;9.65;;;6.85;;
12762;SDS011;6445;52.490;13.378;2024-02-14T07:28:44;9.82;;;6.68;;
12762;SDS011;6445;52.490;13.378;2024-02-14T07:31:09;9.20;;;6.00;;
12762;SDS011;6445;52.490;13.378;2024-02-14T07:33:35;10.55;;;6.22;;
12762;SDS011;6445;52.490;13.378;2024-02-14T07:36:00;15.70;;;6.38;;
12762;SDS011;6445;52.490;13.378;2024-02-14T07:38:25;11.35;;;6.35;;
12762;SDS011;6445;52.490;13.378;2024-02-14T07:40:51;8.63;;;6.18;;
12762;SDS011;6445;52.490;13.378;2024-02-14T07:43:18;8.13;;;5.80;;
12762;SDS011;6445;52.490;13.378;2024-02-14T07:45:43;12.77;;;6.18;;
12762;SDS011;6445;52.490;13.378;2024-02-14T07:48:08;11.88;;;6.13;;
12762;SDS011;6445;52.490;13.378;2024-02-14T07:50:33;10.10;;;6.28;;
12762;SDS011;6445;52.490;13.378;2024-02-14T07:52:59;8.25;;;5.53;;
12762;SDS011;6445;52.490;13.378;2024-02-14T07:55:24;10.07;;;6.05;;
12762;SDS011;6445;52.490;13.378;2024-02-14T07:57:49;8.88;;;5.90;;
12762;SDS011;6445;52.490;13.378;2024-02-14T08:00:15;7.38;;;6.00;;
12762;SDS011;6445;52.490;13.378;2024-02-14T08:02:47;9.48;;;5.78;;
12762;SDS011;6445;52.490;13.378;2024-02-14T08:05:12;9.95;;;6.00;;
12762;SDS011;6445;52.490;13.378;2024-02-14T08:07:38;7.97;;;6.00;;
12762;SDS011;6445;52.490;13.378;2024-02-14T08:10:03;9.77;;;6.28;;
12762;SDS011;6445;52.490;13.378;2024-02-14T08:12:29;11.43;;;6.35;;
12762;SDS011;6445;52.490;13.378;2024-02-14T08:14:55;9.00;;;5.75;;
12762;SDS011;6445;52.490;13.378;2024-02-14T08:17:20;11.95;;;6.07;;
12762;SDS011;6445;52.490;13.378;2024-02-14T08:19:46;7.88;;;5.20;;
12762;SDS011;6445;52.490;13.378;2024-02-14T08:22:11;8.75;;;5.90;;
12762;SDS011;6445;52.490;13.378;2024-02-14T08:24:37;9.25;;;5.03;;
12762;SDS011;6445;52.490;13.378;2024-02-14T08:27:03;6.97;;;5.22;;
12762;SDS011;6445;52.490;13.378;2024-02-14T08:29:31;9.68;;;5.47;;
12762;SDS011;6445;52.490;13.378;2024-02-14T08:31:57;11.30;;;5.55;;
12762;SDS011;6445;52.490;13.378;2024-02-14T08:34:22;9.18;;;5.90;;
12762;SDS011;6445;52.490;13.378;2024-02-14T08:36:47;8.60;;;5.38;;
12762;SDS011;6445;52.490;13.378;2024-02-14T08:39:12;7.88;;;5.38;;
12762;SDS011;6445;52.490;13.378;2024-02-14T08:41:38;8.88;;;5.18;;
12762;SDS011;6445;52.490;13.378;2024-02-14T08:44:08;10.40;;;4.93;;
12762;SDS011;6445;52.490;13.378;2024-02-14T08:46:33;7.32;;;4.97;;
12762;SDS011;6445;52.490;13.378;2024-02-14T08:49:01;7.97;;;4.63;;
12762;SDS011;6445;52.490;13.378;2024-02-14T08:51:27;8.98;;;4.57;;
12762;SDS011;6445;52.490;13.378;2024-02-14T08:53:53;5.13;;;4.05;;
12762;SDS011;6445;52.490;13.378;2024-02-14T08:56:20;5.50;;;3.97;;
12762;SDS011;6445;52.490;13.378;2024-02-14T08:58:47;6.63;;;4.22;;
12762;SDS011;6445;52.490;13.378;2024-02-14T09:01:12;5.20;;;3.40;;
12762;SDS011;6445;52.490;13.378;2024-02-14T09:03:37;8.27;;;3.75;;
12762;SDS011;6445;52.490;13.378;2024-02-14T09:06:03;5.05;;;3.70;;
12762;SDS011;6445;52.490;13.378;2024-02-14T09:08:29;5.95;;;3.35;;
12762;SDS011;6445;52.490;13.378;2024-02-14T09:10:55;6.63;;;3.67;;
12762;SDS011;6445;52.490;13.378;2024-02-14T09:13:21;6.28;;;3.17;;
12762;SDS011;6445;52.490;13.378;2024-02-14T09:15:46;5.00;;;3.42;;
12762;SDS011;6445;52.490;13.378;2024-02-14T09:18:13;7.97;;;3.50;;
12762;SDS011;6445;52.490;13.378;2024-02-14T09:20:40;5.13;;;3.45;;
12762;SDS011;6445;52.490;13.378;2024-02-14T09:23:05;6.00;;;3.67;;
12762;SDS011;6445;52.490;13.378;2024-02-14T09:25:31;9.73;;;3.20;;
12762;SDS011;6445;52.490;13.378;2024-02-14T09:27:56;4.80;;;3.38;;
12762;SDS011;6445;52.490;13.378;2024-02-14T09:30:21;6.78;;;3.38;;
12762;SDS011;6445;52.490;13.378;2024-02-14T09:32:46;8.77;;;3.17;;
12762;SDS011;6445;52.490;13.378;2024-02-14T09:35:12;7.57;;;3.20;;
12762;SDS011;6445;52.490;13.378;2024-02-14T09:37:38;6.03;;;3.50;;
12762;SDS011;6445;52.490;13.378;2024-02-14T09:40:04;4.25;;;3.17;;
12762;SDS011;6445;52.490;13.378;2024-02-14T09:42:43;6.40;;;3.53;;
12762;SDS011;6445;52.490;13.378;2024-02-14T09:45:12;7.05;;;3.45;;
12762;SDS011;6445;52.490;13.378;2024-02-14T09:47:39;7.40;;;3.55;;
12762;SDS011;6445;52.490;13.378;2024-02-14T09:50:05;7.63;;;3.60;;
12762;SDS011;6445;52.490;13.378;2024-02-14T09:52:32;6.53;;;4.40;;
12762;SDS011;6445;52.490;13.378;2024-02-14T09:54:58;7.43;;;4.50;;
12762;SDS011;6445;52.490;13.378;2024-02-14T09:57:23;5.95;;;3.58;;
12762;SDS011;6445;52.490;13.378;2024-02-14T09:59:50;9.30;;;3.53;;
12762;SDS011;6445;52.490;13.378;2024-02-14T10:02:18;6.25;;;3.53;;
12762;SDS011;6445;52.490;13.378;2024-02-14T10:04:43;6.20;;;3.70;;
12762;SDS011;6445;52.490;13.378;2024-02-14T10:07:08;5.25;;;3.47;;
12762;SDS011;6445;52.490;13.378;2024-02-14T10:09:40;6.72;;;4.07;;
12762;SDS011;6445;52.490;13.378;2024-02-14T10:12:07;7.13;;;3.53;;
12762;SDS011;6445;52.490;13.378;2024-02-14T10:14:34;7.22;;;3.78;;
12762;SDS011;6445;52.490;13.378;2024-02-14T10:16:59;8.40;;;4.15;;
12762;SDS011;6445;52.490;13.378;2024-02-14T10:19:24;7.47;;;4.65;;
12762;SDS011;6445;52.490;13.378;2024-02-14T10:21:56;8.77;;;4.30;;
12762;SDS011;6445;52.490;13.378;2024-02-14T10:24:29;9.07;;;3.88;;
12762;SDS011;6445;52.490;13.378;2024-02-14T10:26:55;6.90;;;4.10;;
12762;SDS011;6445;52.490;13.378;2024-02-14T10:29:22;8.73;;;3.92;;
12762;SDS011;6445;52.490;13.378;2024-02-14T10:31:48;7.85;;;4.05;;
12762;SDS011;6445;52.490;13.378;2024-02-14T10:34:13;7.00;;;4.25;;
12762;SDS011;6445;52.490;13.378;2024-02-14T10:36:39;10.90;;;4.30;;
12762;SDS011;6445;52.490;13.378;2024-02-14T10:39:06;8.10;;;4.45;;
12762;SDS011;6445;52.490;13.378;2024-02-14T10:41:34;9.30;;;3.95;;
12762;SDS011;6445;52.490;13.378;2024-02-14T10:44:03;6.65;;;3.97;;
12762;SDS011;6445;52.490;13.378;2024-02-14T10:46:31;8.60;;;4.30;;
12762;SDS011;6445;52.490;13.378;2024-02-14T10:48:58;5.43;;;4.15;;
12762;SDS011;6445;52.490;13.378;2024-02-14T10:51:29;6.55;;;3.80;;
12762;SDS011;6445;52.490;13.378;2024-02-14T10:53:56;6.40;;;4.25;;
12762;SDS011;6445;52.490;13.378;2024-02-14T10:56:24;7.53;;;4.03;;
12762;SDS011;6445;52.490;13.378;2024-02-14T10:58:53;6.22;;;4.30;;
12762;SDS011;6445;52.490;13.378;2024-02-14T11:01:22;7.28;;;4.05;;
12762;SDS011;6445;52.490;13.378;2024-02-14T11:03:49;6.32;;;4.28;;
12762;SDS011;6445;52.490;13.378;2024-02-14T11:06:16;6.72;;;4.70;;
12762;SDS011;6445;52.490;13.378;2024-02-14T11:08:57;7.03;;;4.35;;
12762;SDS011;6445;52.490;13.378;2024-02-14T11:11:29;6.93;;;4.30;;
12762;SDS011;6445;52.490;13.378;2024-02-14T11:13:55;5.32;;;4.07;;
12762;SDS011;6445;52.490;13.378;2024-02-14T11:16:25;9.80;;;4.35;;
12762;SDS011;6445;52.490;13.378;2024-02-14T11:18:53;7.70;;;4.30;;
12762;SDS011;6445;52.490;13.378;2024-02-14T11:21:19;6.45;;;4.05;;
12762;SDS011;6445;52.490;13.378;2024-02-14T11:23:53;5.47;;;3.90;;
12762;SDS011;6445;52.490;13.378;2024-02-14T11:26:19;8.10;;;4.10;;
12762;SDS011;6445;52.490;13.378;2024-02-14T11:28:44;9.13;;;4.30;;
12762;SDS011;6445;52.490;13.378;2024-02-14T11:31:12;5.63;;;3.85;;
12762;SDS011;6445;52.490;13.378;2024-02-14T11:33:42;9.85;;;3.92;;
12762;SDS011;6445;52.490;13.378;2024-02-14T11:36:09;5.82;;;3.97;;
12762;SDS011;6445;52.490;13.378;2024-02-14T11:38:40;5.45;;;3.95;;
12762;SDS011;6445;52.490;13.378;2024-02-14T11:41:05;6.75;;;4.05;;
12762;SDS011;6445;52.490;13.378;2024-02-14T11:43:31;8.00;;;4.18;;
12762;SDS011;6445;52.490;13.378;2024-02-14T11:45:57;6.90;;;4.00;;
12762;SDS011;6445;52.490;13.378;2024-02-14T11:48:22;8.13;;;4.20;;
12762;SDS011;6445;52.490;13.378;2024-02-14T11:50:51;6.30;;;3.85;;
12762;SDS011;6445;52.490;13.378;2024-02-14T11:53:18;6.85;;;4.40;;
12762;SDS011;6445;52.490;13.378;2024-02-14T11:55:45;7.78;;;4.15;;
12762;SDS011;6445;52.490;13.378;2024-02-14T11:58:14;6.18;;;4.70;;
12762;SDS011;6445;52.490;13.378;2024-02-14T12:00:41;7.70;;;3.92;;
12762;SDS011;6445;52.490;13.378;2024-02-14T12:03:08;5.82;;;4.38;;
12762;SDS011;6445;52.490;13.378;2024-02-14T12:05:36;6.22;;;4.63;;
12762;SDS011;6445;52.490;13.378;2024-02-14T12:08:02;8.15;;;4.43;;
12762;SDS011;6445;52.490;13.378;2024-02-14T12:10:31;7.70;;;4.40;;
12762;SDS011;6445;52.490;13.378;2024-02-14T12:12:57;8.77;;;4.68;;
12762;SDS011;6445;52.490;13.378;2024-02-14T12:15:22;8.00;;;4.22;;
12762;SDS011;6445;52.490;13.378;2024-02-14T12:17:47;6.60;;;4.40;;
12762;SDS011;6445;52.490;13.378;2024-02-14T12:20:14;9.30;;;4.70;;
12762;SDS011;6445;52.490;13.378;2024-02-14T12:22:40;10.00;;;5.03;;
12762;SDS011;6445;52.490;13.378;2024-02-14T12:25:06;8.57;;;5.03;;
12762;SDS011;6445;52.490;13.378;2024-02-14T12:27:33;8.35;;;4.90;;
12762;SDS011;6445;52.490;13.378;2024-02-14T12:29:59;7.57;;;4.60;;
12762;SDS011;6445;52.490;13.378;2024-02-14T12:32:24;7.20;;;4.95;;
12762;SDS011;6445;52.490;13.378;2024-02-14T12:34:49;7.90;;;5.35;;
12762;SDS011;6445;52.490;13.378;2024-02-14T12:37:15;6.25;;;4.82;;
12762;SDS011;6445;52.490;13.378;2024-02-14T12:39:40;6.70;;;4.70;;
12762;SDS011;6445;52.490;13.378;2024-02-14T12:42:05;8.35;;;5.72;;
12762;SDS011;6445;52.490;13.378;2024-02-14T12:44:31;7.18;;;4.82;;
12762;SDS011;6445;52.490;13.378;2024-02-14T12:46:56;7.90;;;5.28;;
12762;SDS011;6445;52.490;13.378;2024-02-14T12:49:22;6.78;;;5.18;;
12762;SDS011;6445;52.490;13.378;2024-02-14T12:51:51;10.52;;;5.50;;
12762;SDS011;6445;52.490;13.378;2024-02-14T12:54:16;6.85;;;5.50;;
12762;SDS011;6445;52.490;13.378;2024-02-14T12:56:42;7.53;;;5.10;;
12762;SDS011;6445;52.490;13.378;2024-02-14T12:59:07;9.88;;;5.30;;
12762;SDS011;6445;52.490;13.378;2024-02-14T13:01:35;7.13;;;5.32;;
12762;SDS011;6445;52.490;13.378;2024-02-14T13:04:00;9.18;;;5.13;;
12762;SDS011;6445;52.490;13.378;2024-02-14T13:06:30;8.93;;;5.93;;
12762;SDS011;6445;52.490;13.378;2024-02-14T13:08:56;10.13;;;5.50;;
12762;SDS011;6445;52.490;13.378;2024-02-14T13:11:21;7.65;;;5.40;;
12762;SDS011;6445;52.490;13.378;2024-02-14T13:13:46;7.95;;;5.53;;
12762;SDS011;6445;52.490;13.378;2024-02-14T13:16:11;10.00;;;5.40;;
12762;SDS011;6445;52.490;13.378;2024-02-14T13:18:37;8.15;;;5.70;;
12762;SDS011;6445;52.490;13.378;2024-02-14T13:21:02;11.10;;;6.78;;
12762;SDS011;6445;52.490;13.378;2024-02-14T13:23:27;9.50;;;6.18;;
12762;SDS011;6445;52.490;13.378;2024-02-14T13:25:53;11.20;;;6.50;;
12762;SDS011;6445;52.490;13.378;2024-02-14T13:28:18;10.60;;;7.28;;
12762;SDS011;6445;52.490;13.378;2024-02-14T13:30:43;10.25;;;6.07;;
12762;SDS011;6445;52.490;13.378;2024-02-14T13:33:09;11.10;;;6.60;;
12762;SDS011;6445;52.490;13.378;2024-02-14T13:35:36;14.93;;;8.45;;
12762;SDS011;6445;52.490;13.378;2024-02-14T13:38:03;8.48;;;5.78;;
12762;SDS011;6445;52.490;13.378;2024-02-14T13:40:30;8.55;;;6.30;;
12762;SDS011;6445;52.490;13.378;2024-02-14T13:42:55;9.35;;;6.00;;
12762;SDS011;6445;52.490;13.378;2024-02-14T13:45:20;12.38;;;7.60;;
12762;SDS011;6445;52.490;13.378;2024-02-14T13:47:47;9.35;;;5.95;;
12762;SDS011;6445;52.490;13.378;2024-02-14T13:50:12;9.43;;;6.20;;
12762;SDS011;6445;52.490;13.378;2024-02-14T13:52:37;9.48;;;6.20;;
12762;SDS011;6445;52.490;13.378;2024-02-14T13:55:03;8.23;;;6.40;;
12762;SDS011;6445;52.490;13.378;2024-02-14T13:57:31;8.48;;;6.22;;
12762;SDS011;6445;52.490;13.378;2024-02-14T13:59:57;12.15;;;6.95;;
12762;SDS011;6445;52.490;13.378;2024-02-14T14:02:22;8.10;;;5.80;;
12762;SDS011;6445;52.490;13.378;2024-02-14T14:04:48;8.02;;;6.15;;
12762;SDS011;6445;52.490;13.378;2024-02-14T14:07:14;10.75;;;5.88;;
12762;SDS011;6445;52.490;13.378;2024-02-14T14:09:39;8.18;;;6.38;;
12762;SDS011;6445;52.490;13.378;2024-02-14T14:12:04;8.82;;;6.50;;
12762;SDS011;6445;52.490;13.378;2024-02-14T14:14:30;10.20;;;7.55;;
12762;SDS011;6445;52.490;13.378;2024-02-14T14:16:55;10.23;;;6.60;;
12762;SDS011;6445;52.490;13.378;2024-02-14T14:19:20;10.43;;;8.07;;
12762;SDS011;6445;52.490;13.378;2024-02-14T14:21:46;12.23;;;8.23;;
12762;SDS011;6445;52.490;13.378;2024-02-14T14:24:11;13.63;;;8.10;;
12762;SDS011;6445;52.490;13.378;2024-02-14T14:26:36;11.13;;;7.22;;
12762;SDS011;6445;52.490;13.378;2024-02-14T14:29:02;10.23;;;7.50;;
12762;SDS011;6445;52.490;13.378;2024-02-14T14:31:28;11.23;;;6.88;;
12762;SDS011;6445;52.490;13.378;2024-02-14T14:33:53;11.18;;;7.38;;